createdAt,value
2019-04-05T00:02:00.216Z,33.10
2019-04-05T00:04:29.227Z,32.13
2019-04-05T00:06:58.186Z,30.90
2019-04-05T00:09:27.268Z,34.50
2019-04-05T00:11:56.221Z,33.57
2019-04-05T00:14:25.223Z,32.90
2019-04-05T00:16:54.148Z,33.10
2019-04-05T00:19:23.641Z,33.60
2019-04-05T00:21:52.742Z,33.63
2019-04-05T00:24:21.799Z,33.20
2019-04-05T00:26:50.773Z,34.13
2019-04-05T00:29:19.869Z,33.33
2019-04-05T00:31:48.898Z,33.30
2019-04-05T00:34:17.781Z,31.90
2019-04-05T00:36:46.912Z,32.70
2019-04-05T00:39:15.883Z,32.40
2019-04-05T00:41:44.916Z,35.67
2019-04-05T00:44:13.929Z,36.77
2019-04-05T00:46:44.781Z,33.47
2019-04-05T00:49:13.645Z,35.57
2019-04-05T00:51:42.963Z,34.40
2019-04-05T00:54:11.879Z,33.00
2019-04-05T00:56:40.857Z,33.40
2019-04-05T00:59:09.941Z,33.83
2019-04-05T01:01:38.921Z,35.63
2019-04-05T01:04:07.889Z,34.17
2019-04-05T01:06:36.975Z,38.40
2019-04-05T01:09:07.780Z,35.10
2019-04-05T01:11:36.821Z,39.03
2019-04-05T01:14:05.817Z,34.30
2019-04-05T01:16:34.913Z,36.23
2019-04-05T01:19:04.248Z,33.30
2019-04-05T01:21:38.660Z,35.20
2019-04-05T01:24:07.725Z,33.30
2019-04-05T01:26:37.056Z,34.97
2019-04-05T01:29:05.961Z,35.77
2019-04-05T01:31:35.120Z,34.33
2019-04-05T01:34:05.662Z,33.07
2019-04-05T01:36:34.671Z,35.10
2019-04-05T01:39:04.609Z,36.17
2019-04-05T01:41:33.523Z,35.43
2019-04-05T01:44:02.385Z,35.73
2019-04-05T01:46:31.361Z,33.53
2019-04-05T01:49:00.421Z,35.90
2019-04-05T01:51:29.406Z,33.17
2019-04-05T01:53:58.565Z,32.90
2019-04-05T01:56:27.482Z,32.93
2019-04-05T01:58:56.417Z,35.07
2019-04-05T02:01:25.688Z,35.70
2019-04-05T02:03:55.841Z,35.93
2019-04-05T02:06:24.916Z,36.20
2019-04-05T02:08:53.873Z,36.90
2019-04-05T02:11:22.809Z,35.97
2019-04-05T02:13:51.796Z,36.67
2019-04-05T02:16:20.793Z,35.07
2019-04-05T02:18:49.933Z,34.53
2019-04-05T02:21:18.895Z,34.50
2019-04-05T02:23:47.889Z,37.93
2019-04-05T02:26:16.908Z,35.57
2019-04-05T02:28:45.952Z,37.00
2019-04-05T02:31:14.845Z,38.80
2019-04-05T02:33:43.922Z,33.97
2019-04-05T02:36:12.881Z,35.77
2019-04-05T02:38:42.051Z,33.87
2019-04-05T02:41:11.053Z,35.80
2019-04-05T02:43:40.022Z,39.33
2019-04-05T02:46:22.550Z,37.20
2019-04-05T02:48:39.545Z,35.40
2019-04-05T02:51:08.664Z,40.13
2019-04-05T02:53:37.713Z,39.20
2019-04-05T02:56:08.381Z,39.33
2019-04-05T02:58:37.896Z,34.27
2019-04-05T03:01:06.953Z,35.67
2019-04-05T03:03:37.021Z,35.50
2019-04-05T03:06:06.045Z,35.80
2019-04-05T03:08:35.048Z,35.17
2019-04-05T03:11:25.001Z,35.47
2019-04-05T03:13:55.406Z,35.97
2019-04-05T03:16:43.820Z,35.77
2019-04-05T03:19:19.450Z,34.17
2019-04-05T03:21:51.578Z,34.50
2019-04-05T03:24:23.465Z,36.07
2019-04-05T03:26:56.790Z,33.17
2019-04-05T03:29:25.796Z,33.53
2019-04-05T03:31:54.685Z,36.00
2019-04-05T03:34:23.759Z,34.07
2019-04-05T03:36:53.005Z,33.00
2019-04-05T03:39:23.043Z,35.33
2019-04-05T03:41:52.859Z,34.03
2019-04-05T03:44:23.141Z,34.90
2019-04-05T03:46:56.756Z,38.77
2019-04-05T03:49:23.467Z,36.97
2019-04-05T03:51:52.589Z,36.83
2019-04-05T03:54:21.591Z,36.87
2019-04-05T03:56:50.582Z,37.70
2019-04-05T03:59:19.525Z,38.20
2019-04-05T04:01:48.585Z,39.13
2019-04-05T04:04:17.576Z,36.90
2019-04-05T04:06:46.531Z,38.27
2019-04-05T04:09:15.408Z,35.70
2019-04-05T04:11:44.517Z,36.60
2019-04-05T04:14:13.489Z,38.43
2019-04-05T04:16:42.509Z,40.60
2019-04-05T04:19:11.694Z,34.00
2019-04-05T04:22:25.073Z,34.53
2019-04-05T04:24:54.116Z,33.30
2019-04-05T04:27:23.130Z,35.73
2019-04-05T04:29:52.556Z,34.80
2019-04-05T04:32:21.540Z,32.87
2019-04-05T04:34:50.830Z,36.33
2019-04-05T04:37:19.824Z,36.70
2019-04-05T04:39:48.935Z,38.87
2019-04-05T04:42:17.934Z,36.13
2019-04-05T04:44:46.866Z,39.73
2019-04-05T04:47:26.145Z,35.20
2019-04-05T04:49:46.788Z,33.87
2019-04-05T04:52:15.715Z,38.00
2019-04-05T04:54:44.656Z,38.50
2019-04-05T04:57:13.783Z,38.13
2019-04-05T04:59:42.824Z,39.93
2019-04-05T05:02:11.704Z,38.53
2019-04-05T05:04:40.790Z,38.90
2019-04-05T05:07:09.765Z,41.30
2019-04-05T05:09:38.764Z,40.77
2019-04-05T05:12:07.867Z,39.17
2019-04-05T05:14:36.793Z,41.90
2019-04-05T05:17:05.837Z,40.70
2019-04-05T05:19:34.826Z,42.23
2019-04-05T05:22:03.944Z,45.10
2019-04-05T05:24:33.157Z,45.50
2019-04-05T05:27:02.165Z,42.47
2019-04-05T05:29:31.401Z,42.73
2019-04-05T05:32:00.382Z,42.20
2019-04-05T05:34:29.401Z,42.80
2019-04-05T05:36:58.424Z,42.30
2019-04-05T05:39:27.424Z,45.03
2019-04-05T05:41:56.418Z,42.97
2019-04-05T05:44:25.392Z,45.30
2019-04-05T05:46:54.380Z,42.07
2019-04-05T05:49:23.354Z,42.30
2019-04-05T05:51:52.278Z,39.20
2019-04-05T05:54:21.330Z,38.37
2019-04-05T05:56:50.352Z,38.30
2019-04-05T05:59:19.345Z,39.83
2019-04-05T06:01:48.305Z,41.33
2019-04-05T06:04:17.320Z,40.73
2019-04-05T06:06:46.276Z,43.70
2019-04-05T06:09:15.312Z,38.77
2019-04-05T06:11:44.338Z,41.67
2019-04-05T06:14:13.244Z,39.57
2019-04-05T06:16:46.697Z,40.77
2019-04-05T06:19:13.084Z,51.50
2019-04-05T06:21:42.036Z,41.07
2019-04-05T06:24:10.966Z,40.00
2019-04-05T06:26:39.829Z,40.57
2019-04-05T06:29:08.929Z,43.33
2019-04-05T06:31:37.964Z,38.27
2019-04-05T06:34:06.948Z,39.30
2019-04-05T06:36:35.833Z,39.27
2019-04-05T06:39:06.902Z,37.70
2019-04-05T06:41:35.813Z,39.20
2019-04-05T06:44:04.737Z,37.70
2019-04-05T06:46:33.601Z,38.30
2019-04-05T06:49:02.648Z,38.73
2019-04-05T06:51:31.544Z,38.30
2019-04-05T06:54:03.231Z,36.83
2019-04-05T06:56:31.125Z,36.60
2019-04-05T06:59:00.340Z,42.97
2019-04-05T07:01:29.369Z,41.17
2019-04-05T07:03:58.433Z,38.43
2019-04-05T07:06:27.457Z,40.33
2019-04-05T07:08:56.470Z,45.63
2019-04-05T07:11:25.493Z,43.73
2019-04-05T07:13:54.490Z,41.63
2019-04-05T07:16:23.457Z,39.87
2019-04-05T07:18:52.517Z,40.87
2019-04-05T07:21:21.589Z,44.20
2019-04-05T07:23:50.595Z,42.20
2019-04-05T07:26:20.996Z,43.97
2019-04-05T07:28:50.276Z,45.63
2019-04-05T07:31:19.163Z,46.20
2019-04-05T07:33:48.096Z,44.03
2019-04-05T07:36:16.988Z,46.90
2019-04-05T07:38:46.865Z,41.70
2019-04-05T07:41:15.821Z,44.70
2019-04-05T07:43:44.765Z,44.27
2019-04-05T07:46:13.797Z,44.17
2019-04-05T07:48:45.130Z,43.80
2019-04-05T07:51:13.537Z,41.67
2019-04-05T07:53:42.773Z,43.37
2019-04-05T07:56:11.812Z,42.23
2019-04-05T07:58:40.811Z,44.60
2019-04-05T08:01:09.785Z,42.83
2019-04-05T08:03:38.768Z,44.13
2019-04-05T08:06:07.823Z,46.97
2019-04-05T08:09:17.357Z,46.53
2019-04-05T08:11:46.333Z,42.30
2019-04-05T08:14:18.003Z,43.00
2019-04-05T08:16:46.822Z,46.60
2019-04-05T08:19:15.815Z,43.10
2019-04-05T08:21:44.787Z,44.87
2019-04-05T08:24:13.893Z,43.77
2019-04-05T08:26:42.797Z,44.30
2019-04-05T08:29:11.726Z,44.77
2019-04-05T08:31:40.688Z,44.77
2019-04-05T08:34:09.808Z,47.13
2019-04-05T08:36:38.768Z,49.27
2019-04-05T08:39:08.565Z,46.97
2019-04-05T08:41:37.541Z,46.97
2019-04-05T08:44:06.645Z,51.63
2019-04-05T08:46:35.792Z,46.13
2019-04-05T08:49:10.942Z,47.20
2019-04-05T08:51:35.616Z,49.37
2019-04-05T08:54:04.769Z,49.87
2019-04-05T08:56:33.773Z,45.60
2019-04-05T08:59:02.857Z,45.10
2019-04-05T09:01:31.961Z,48.13
2019-04-05T09:04:00.954Z,47.30
2019-04-05T09:06:29.967Z,46.30
2019-04-05T09:08:58.918Z,45.80
2019-04-05T09:11:27.933Z,48.13
2019-04-05T09:13:56.900Z,47.27
2019-04-05T09:16:26.011Z,51.70
2019-04-05T09:18:54.973Z,47.90
2019-04-05T09:21:24.201Z,50.17
2019-04-05T09:23:53.410Z,43.17
2019-04-05T09:26:22.413Z,46.03
2019-04-05T09:28:51.511Z,53.07
2019-04-05T09:31:20.664Z,46.00
2019-04-05T09:33:49.641Z,47.00
2019-04-05T09:36:18.589Z,45.70
2019-04-05T09:38:47.768Z,44.00
2019-04-05T09:41:16.758Z,47.27
2019-04-05T09:43:45.700Z,43.33
2019-04-05T09:46:14.809Z,41.17
2019-04-05T09:48:43.953Z,47.10
2019-04-05T09:51:12.958Z,42.07
2019-04-05T09:53:43.028Z,42.87
2019-04-05T09:56:12.242Z,40.30
2019-04-05T09:58:41.269Z,43.27
2019-04-05T10:01:10.310Z,38.50
2019-04-05T10:03:39.361Z,39.97
2019-04-05T10:06:08.414Z,41.00
2019-04-05T10:08:37.378Z,41.27
2019-04-05T10:11:06.446Z,42.13
2019-04-05T10:13:35.380Z,45.80
2019-04-05T10:16:04.584Z,49.60
2019-04-05T10:18:33.634Z,44.47
2019-04-05T10:21:02.624Z,43.67
2019-04-05T10:23:31.730Z,47.13
2019-04-05T10:26:00.848Z,43.67
2019-04-05T10:28:29.870Z,48.00
2019-04-05T10:30:59.046Z,46.40
2019-04-05T10:33:28.087Z,42.80
2019-04-05T10:35:58.279Z,47.07
2019-04-05T10:38:27.246Z,45.73
2019-04-05T10:40:56.258Z,44.77
2019-04-05T10:43:25.293Z,49.87
2019-04-05T10:45:54.968Z,49.03
2019-04-05T10:48:23.782Z,48.27
2019-04-05T10:50:52.768Z,45.87
2019-04-05T10:53:21.918Z,45.30
2019-04-05T10:55:50.913Z,44.53
2019-04-05T10:58:19.989Z,45.60
2019-04-05T11:00:49.064Z,41.53
2019-04-05T11:03:18.051Z,42.70
2019-04-05T11:05:49.266Z,43.93
2019-04-05T11:08:17.803Z,44.73
2019-04-05T11:10:46.995Z,47.00
2019-04-05T11:13:15.975Z,44.93
2019-04-05T11:15:45.032Z,44.00
2019-04-05T11:18:14.073Z,42.37
2019-04-05T11:20:43.215Z,44.07
2019-04-05T11:23:12.180Z,39.30
2019-04-05T11:25:41.398Z,37.50
2019-04-05T11:28:10.428Z,38.90
2019-04-05T11:30:44.004Z,42.80
2019-04-05T11:33:13.097Z,40.50
2019-04-05T11:35:43.972Z,39.50
2019-04-05T11:38:14.349Z,42.27
2019-04-05T11:40:43.840Z,40.13
2019-04-05T11:43:12.807Z,37.13
2019-04-05T11:45:42.014Z,40.43
2019-04-05T11:48:11.048Z,40.20
2019-04-05T11:50:40.082Z,40.53
2019-04-05T11:53:09.045Z,40.57
2019-04-05T11:55:38.204Z,42.17
2019-04-05T11:58:07.098Z,41.00
2019-04-05T12:00:42.281Z,38.23
2019-04-05T12:03:11.657Z,40.10
2019-04-05T12:05:40.632Z,39.10
2019-04-05T12:08:09.777Z,38.27
2019-04-05T12:10:38.817Z,38.00
2019-04-05T12:13:07.780Z,36.70
2019-04-05T12:15:36.808Z,36.53
2019-04-05T12:18:05.801Z,33.43
2019-04-05T12:20:47.363Z,36.60
2019-04-05T12:23:05.627Z,36.37
2019-04-05T12:25:34.599Z,34.63
2019-04-05T12:28:07.029Z,35.40
2019-04-05T12:30:34.450Z,34.80
2019-04-05T12:33:13.810Z,34.23
2019-04-05T12:35:37.271Z,39.90
2019-04-05T12:38:07.012Z,39.30
2019-04-05T12:40:35.969Z,37.10
2019-04-05T12:43:04.924Z,36.30
2019-04-05T12:45:34.013Z,39.07
2019-04-05T12:48:02.968Z,35.97
2019-04-05T12:50:31.988Z,35.47
2019-04-05T12:53:01.137Z,40.47
2019-04-05T12:55:30.092Z,34.57
2019-04-05T12:57:59.369Z,40.00
2019-04-05T13:00:28.408Z,45.17
2019-04-05T13:02:57.497Z,40.90
2019-04-05T13:05:26.516Z,38.00
2019-04-05T13:07:55.545Z,39.40
2019-04-05T13:10:26.166Z,38.07
2019-04-05T13:12:57.836Z,39.43
2019-04-05T13:15:26.298Z,39.60
2019-04-05T13:17:55.374Z,37.33
2019-04-05T13:20:24.369Z,37.60
2019-04-05T13:22:53.490Z,39.77
2019-04-05T13:25:23.112Z,39.47
2019-04-05T13:27:52.425Z,38.03
2019-04-05T13:30:21.686Z,39.80
2019-04-05T13:32:53.422Z,48.43
2019-04-05T13:35:22.064Z,37.70
2019-04-05T13:37:51.244Z,40.53
2019-04-05T13:40:20.318Z,40.50
2019-04-05T13:42:49.248Z,36.60
2019-04-05T13:45:18.304Z,40.97
2019-04-05T13:47:47.391Z,37.07
2019-04-05T13:50:19.237Z,42.33
2019-04-05T13:52:47.148Z,37.50
2019-04-05T13:55:16.192Z,40.30
2019-04-05T13:57:45.270Z,43.17
2019-04-05T14:00:18.206Z,45.37
2019-04-05T14:02:45.984Z,43.47
2019-04-05T14:05:15.051Z,39.33
2019-04-05T14:07:44.322Z,38.67
2019-04-05T14:10:13.282Z,38.10
2019-04-05T14:12:42.314Z,36.23
2019-04-05T14:15:12.159Z,38.13
2019-04-05T14:17:44.022Z,35.37
2019-04-05T14:20:12.064Z,38.60
2019-04-05T14:22:41.104Z,36.90
2019-04-05T14:25:10.263Z,38.90
2019-04-05T14:27:39.288Z,36.87
2019-04-05T14:30:08.330Z,37.70
2019-04-05T14:32:37.460Z,36.83
2019-04-05T14:35:08.039Z,36.80
2019-04-05T14:37:37.290Z,39.87
2019-04-05T14:40:06.587Z,38.63
2019-04-05T14:42:35.630Z,37.20
2019-04-05T14:45:05.266Z,37.13
2019-04-05T14:47:34.345Z,37.80
2019-04-05T14:50:03.332Z,41.80
2019-04-05T14:52:32.423Z,35.60
2019-04-05T14:55:01.364Z,38.80
2019-04-05T14:57:30.520Z,35.93
2019-04-05T14:59:59.490Z,37.90
2019-04-05T15:02:28.639Z,39.03
2019-04-05T15:04:57.659Z,38.60
2019-04-05T15:07:26.652Z,40.30
2019-04-05T15:09:55.823Z,38.37
2019-04-05T15:12:28.767Z,38.10
2019-04-05T15:14:55.504Z,40.30
2019-04-05T15:17:26.439Z,37.27
2019-04-05T15:19:55.677Z,38.30
2019-04-05T15:22:27.563Z,40.80
2019-04-05T15:24:55.562Z,42.23
2019-04-05T15:27:24.837Z,36.87
2019-04-05T15:29:55.745Z,38.07
2019-04-05T15:32:25.429Z,38.33
2019-04-05T15:34:56.539Z,39.10
2019-04-05T15:37:26.024Z,42.03
2019-04-05T15:39:55.228Z,36.63
2019-04-05T15:42:25.393Z,38.80
2019-04-05T15:44:54.320Z,39.97
2019-04-05T15:47:23.903Z,43.43
2019-04-05T15:49:52.955Z,38.90
2019-04-05T15:52:22.034Z,43.33
2019-04-05T15:54:51.317Z,37.90
2019-04-05T15:57:39.643Z,39.40
2019-04-05T16:00:10.465Z,37.43
2019-04-05T16:02:39.441Z,39.67
2019-04-05T16:05:09.047Z,36.37
2019-04-05T16:07:38.032Z,39.40
2019-04-05T16:10:07.844Z,40.07
2019-04-05T16:12:37.059Z,40.00
2019-04-05T16:15:06.662Z,41.10
2019-04-05T16:17:35.670Z,38.97
2019-04-05T16:20:06.567Z,42.93
2019-04-05T16:22:36.058Z,37.80
2019-04-05T16:25:05.572Z,37.87
2019-04-05T16:27:34.632Z,38.57
2019-04-05T16:30:04.235Z,44.90
2019-04-05T16:32:33.276Z,38.30
2019-04-05T16:35:02.253Z,37.30
2019-04-05T16:37:31.345Z,40.57
2019-04-05T16:40:00.308Z,38.27
2019-04-05T16:42:29.433Z,40.10
2019-04-05T16:44:58.409Z,42.33
2019-04-05T16:47:27.661Z,39.30
2019-04-05T16:49:56.709Z,43.13
2019-04-05T16:52:25.768Z,39.97
2019-04-05T16:54:54.822Z,40.63
2019-04-05T16:57:23.797Z,40.77
2019-04-05T16:59:52.861Z,39.43
2019-04-05T17:02:22.055Z,39.20
2019-04-05T17:04:51.237Z,40.60
2019-04-05T17:07:20.249Z,37.90
2019-04-05T17:09:49.226Z,40.20
2019-04-05T17:12:18.498Z,41.43
2019-04-05T17:14:47.552Z,40.93
2019-04-05T17:17:16.673Z,44.13
2019-04-05T17:19:45.669Z,43.60
2019-04-05T17:22:14.552Z,41.50
2019-04-05T17:24:43.558Z,40.23
2019-04-05T17:27:12.574Z,40.70
2019-04-05T17:29:41.679Z,39.17
2019-04-05T17:32:10.849Z,40.47
2019-04-05T17:34:39.836Z,40.60
2019-04-05T17:37:08.716Z,37.67
2019-04-05T17:39:37.809Z,41.17
2019-04-05T17:42:06.861Z,41.00
2019-04-05T17:44:35.834Z,40.27
2019-04-05T17:47:04.846Z,40.73
2019-04-05T17:49:33.877Z,41.63
2019-04-05T17:52:02.955Z,40.83
2019-04-05T17:54:32.018Z,41.00
2019-04-05T17:57:01.473Z,39.30
2019-04-05T17:59:30.597Z,39.70
2019-04-05T18:01:59.649Z,40.50
2019-04-05T18:04:28.706Z,43.40
2019-04-05T18:06:57.777Z,46.57
2019-04-05T18:09:28.167Z,42.70
2019-04-05T18:11:57.191Z,45.20
2019-04-05T18:14:26.360Z,42.40
2019-04-05T18:16:55.433Z,42.67
2019-04-05T18:19:24.449Z,45.47
2019-04-05T18:21:53.667Z,43.37
2019-04-05T18:24:23.797Z,43.97
2019-04-05T18:26:52.870Z,46.00
2019-04-05T18:29:21.921Z,43.77
2019-04-05T18:31:50.994Z,47.63
2019-04-05T18:34:20.070Z,44.03
2019-04-05T18:36:49.513Z,43.60
2019-04-05T18:39:18.629Z,42.17
2019-04-05T18:41:47.596Z,41.90
2019-04-05T18:44:16.681Z,43.87
2019-04-05T18:46:45.938Z,41.83
2019-04-05T18:49:15.100Z,47.27
2019-04-05T18:51:44.397Z,43.77
2019-04-05T18:54:13.477Z,43.60
2019-04-05T18:56:42.617Z,42.77
2019-04-05T18:59:11.721Z,40.13
2019-04-05T19:01:40.762Z,42.60
2019-04-05T19:04:09.761Z,43.87
2019-04-05T19:06:40.639Z,41.83
2019-04-05T19:09:11.874Z,42.53
2019-04-05T19:11:41.046Z,44.07
2019-04-05T19:14:10.109Z,46.07
2019-04-05T19:16:39.275Z,46.83
2019-04-05T19:19:08.348Z,46.60
2019-04-05T19:21:37.392Z,48.57
2019-04-05T19:24:06.537Z,41.43
2019-04-05T19:26:35.667Z,43.10
2019-04-05T19:29:04.914Z,42.33
2019-04-05T19:49:11.184Z,43.10
2019-04-05T19:51:40.241Z,41.20
2019-04-05T19:54:09.300Z,41.10
2019-04-05T19:56:38.367Z,40.20
2019-04-05T19:59:07.445Z,39.93
2019-04-05T20:01:36.494Z,41.20
2019-04-05T20:04:05.620Z,44.10
2019-04-05T20:06:34.664Z,42.77
2019-04-05T20:09:24.426Z,41.67
2019-04-05T20:11:53.510Z,41.60
2019-04-05T20:14:22.542Z,42.80
2019-04-05T20:16:54.820Z,42.70
2019-04-05T20:19:23.965Z,42.77
2019-04-05T20:21:54.142Z,46.77
2019-04-05T20:24:23.285Z,40.87
2019-04-05T20:26:52.518Z,41.63
2019-04-05T20:29:21.857Z,41.27
2019-04-05T20:31:51.198Z,41.67
2019-04-05T20:34:20.547Z,39.97
2019-04-05T20:36:49.709Z,40.27
2019-04-05T20:39:18.966Z,41.47
2019-04-05T20:41:47.977Z,43.07
2019-04-05T20:44:16.957Z,41.13
2019-04-05T20:46:45.958Z,42.90
2019-04-05T20:49:15.034Z,44.47
2019-04-05T20:51:44.084Z,41.03
2019-04-05T20:54:24.248Z,40.50
2019-04-05T20:56:45.455Z,46.30
2019-04-05T20:59:14.650Z,40.80
2019-04-05T21:01:43.838Z,41.53
2019-04-05T21:04:14.476Z,41.30
2019-04-05T21:06:43.498Z,38.40
2019-04-05T21:09:12.552Z,43.67
2019-04-05T21:11:41.877Z,41.37
2019-04-05T21:14:11.152Z,42.30
2019-04-05T21:16:40.212Z,41.70
2019-04-05T21:19:10.401Z,44.43
2019-04-05T21:21:39.477Z,43.83
2019-04-05T21:24:09.417Z,45.57
2019-04-05T21:26:38.519Z,44.43
2019-04-05T21:29:07.660Z,42.53
2019-04-05T21:31:36.677Z,45.83
2019-04-05T21:34:06.045Z,47.83
2019-04-05T21:36:35.494Z,49.33
2019-04-05T21:39:06.093Z,44.47
2019-04-05T21:41:35.237Z,50.00
2019-04-05T21:44:04.248Z,46.50
2019-04-05T21:46:33.368Z,47.10
2019-04-05T21:49:02.683Z,44.13
2019-04-05T21:51:31.897Z,47.43
2019-04-05T21:54:01.019Z,43.70
2019-04-05T21:56:29.940Z,44.33
2019-04-05T21:58:58.855Z,49.77
2019-04-05T22:01:28.139Z,50.00
2019-04-05T22:03:57.189Z,43.33
2019-04-05T22:06:26.288Z,45.43
2019-04-05T22:08:55.408Z,44.33
2019-04-05T22:11:24.481Z,44.57
2019-04-05T22:13:54.868Z,45.73
2019-04-05T22:16:26.648Z,48.17
2019-04-05T22:18:55.605Z,46.13
2019-04-05T22:21:24.734Z,47.03
2019-04-05T22:23:53.718Z,48.70
2019-04-05T22:26:23.065Z,45.33
2019-04-05T22:28:52.200Z,47.63
2019-04-05T22:31:21.361Z,48.23
2019-04-05T22:33:52.064Z,50.33
2019-04-05T22:36:21.050Z,50.00
2019-04-05T22:38:49.932Z,53.80
2019-04-05T22:41:18.948Z,50.60
2019-04-05T22:43:47.934Z,50.77
2019-04-05T22:46:17.673Z,46.93
2019-04-05T22:48:47.368Z,51.20
2019-04-05T22:51:16.304Z,55.27
2019-04-05T22:53:45.252Z,49.23
2019-04-05T22:56:14.446Z,50.30
2019-04-05T22:58:43.435Z,49.43
2019-04-05T23:01:12.417Z,51.17
2019-04-05T23:03:41.361Z,48.33
2019-04-05T23:06:10.308Z,48.93
2019-04-05T23:08:39.284Z,51.53
2019-04-05T23:11:08.989Z,47.80
2019-04-05T23:13:38.203Z,49.00
2019-04-05T23:16:07.613Z,51.70
2019-04-05T23:18:36.670Z,52.77
2019-04-05T23:21:05.681Z,49.20
2019-04-05T23:23:34.665Z,57.57
2019-04-05T23:26:03.883Z,49.03
2019-04-05T23:28:34.778Z,52.77
2019-04-05T23:31:03.831Z,50.27
2019-04-05T23:33:38.336Z,59.47
2019-04-05T23:36:07.344Z,52.47
2019-04-05T23:38:36.429Z,54.57
2019-04-05T23:41:05.486Z,51.57
2019-04-05T23:43:34.448Z,50.33
2019-04-05T23:46:03.521Z,51.47
2019-04-05T23:48:32.526Z,53.20
2019-04-05T23:51:01.485Z,48.63
2019-04-05T23:53:32.596Z,59.27
2019-04-05T23:56:01.565Z,57.27
2019-04-05T23:58:30.615Z,51.50
